Strona główna
METAR-TAF:

METAR-TAF

Lotnisko :

Penn Valley Airport

Selinsgrove, Pensylwania, Stany Zjednoczone

Szerokość geograficzna: 40-49-09N, Długość geograficzna: 076-51-58W, wysokość: 137 m

Aktualna obserwacja pogody

Raport powstał 1 godzina i 3 minut temu, godzina 14:53 UTC
Wiatr 4 kt od południe
Temperatura 24°C
Wilgotność 74%
Ciśnienie 1013 hPa
Widzialność: 16.1 km
bezchmurnie

METAR: KSEG 041453Z AUTO 18004KT 10SM CLR 24/19 A2990 RMK AO2 SLP123 T02440189 51004

czas: 11:56 (15:56 UTC)


TAF: brakujący

Obserwacja i prognoza pogody dla ponad 4000 lotnisk (raport METAR i TAF).

Dostępne stacje oznaczono żółtymi i czerwonymi punktami na mapie.

Najedź kursorem aby zobaczyć nazwę stacji.

Kliknij aby zobaczyć obserwacje i prognozy pogody.

Aby zmienić mapę: kliknij na zielony przycisk z czarnym krzyżykiem, aby powiększyć; na zielony przycisk z myślnikiem, aby pomniejszyć; na zielone strzałki, aby przejść do map sąsiednich.


METAR-TAF: